createdAt,value
2022-11-29T00:00:06.867Z,8.32
2022-11-29T00:00:50.576Z,8.80
2022-11-29T00:01:35.985Z,8.40
2022-11-29T00:02:17.783Z,8.70
2022-11-29T00:03:02.462Z,7.93
2022-11-29T00:03:44.382Z,7.65
2022-11-29T00:04:28.424Z,8.68
2022-11-29T00:05:10.150Z,8.90
2022-11-29T00:05:53.203Z,8.88
2022-11-29T00:06:35.470Z,8.10
2022-11-29T00:07:17.183Z,8.23
2022-11-29T00:07:59.544Z,8.20
2022-11-29T00:08:41.904Z,8.45
2022-11-29T00:09:27.442Z,9.07
2022-11-29T00:10:09.508Z,8.85
2022-11-29T00:10:51.368Z,8.85
2022-11-29T00:11:56.501Z,8.50
2022-11-29T00:12:38.134Z,8.75
2022-11-29T00:13:19.812Z,8.70
2022-11-29T00:14:02.110Z,9.20
2022-11-29T00:14:44.287Z,9.13
2022-11-29T00:15:26.180Z,9.27
2022-11-29T00:16:12.173Z,8.55
2022-11-29T00:16:59.106Z,8.60
2022-11-29T00:17:41.001Z,9.05
2022-11-29T00:18:22.705Z,8.00
2022-11-29T00:19:04.411Z,7.57
2022-11-29T00:19:46.099Z,8.23
2022-11-29T00:20:27.799Z,8.63
2022-11-29T00:21:09.848Z,8.80
2022-11-29T00:21:51.563Z,8.70
2022-11-29T00:22:33.213Z,7.80
2022-11-29T00:23:14.838Z,8.60
2022-11-29T00:23:56.895Z,8.35
2022-11-29T00:24:38.625Z,8.30
2022-11-29T00:25:20.322Z,7.90
2022-11-29T00:26:08.064Z,8.25
2022-11-29T00:26:50.399Z,8.43
2022-11-29T00:27:32.297Z,8.65
2022-11-29T00:28:13.987Z,8.07
2022-11-29T00:28:55.950Z,7.80
2022-11-29T00:29:37.607Z,8.30
2022-11-29T00:30:20.690Z,7.82
2022-11-29T00:31:14.269Z,7.63
2022-11-29T00:31:55.984Z,8.20
2022-11-29T00:32:38.039Z,8.02
2022-11-29T00:33:19.703Z,7.35
2022-11-29T00:34:04.828Z,8.43
2022-11-29T00:34:46.566Z,8.98
2022-11-29T00:35:28.412Z,8.73
2022-11-29T00:36:11.010Z,8.50
2022-11-29T00:36:52.686Z,7.75
2022-11-29T00:37:34.380Z,7.50
2022-11-29T00:38:16.190Z,7.75
2022-11-29T00:38:57.968Z,8.02
2022-11-29T00:39:41.031Z,7.50
2022-11-29T00:40:22.727Z,8.55
2022-11-29T00:41:04.871Z,8.43
2022-11-29T00:41:46.621Z,7.05
2022-11-29T00:42:28.292Z,8.07
2022-11-29T00:43:10.060Z,8.57
2022-11-29T00:43:51.820Z,7.78
2022-11-29T00:44:33.579Z,7.40
2022-11-29T00:45:15.348Z,7.72
2022-11-29T00:45:57.142Z,8.18
2022-11-29T00:46:38.844Z,7.82
2022-11-29T00:47:20.640Z,7.40
2022-11-29T00:48:02.283Z,7.32
2022-11-29T00:48:44.423Z,8.07
2022-11-29T00:49:26.112Z,7.90
2022-11-29T00:50:08.149Z,7.55
2022-11-29T00:50:49.791Z,7.85
2022-11-29T00:51:31.773Z,8.10
2022-11-29T00:52:13.439Z,8.05
2022-11-29T00:52:55.075Z,8.23
2022-11-29T00:53:37.783Z,8.07
2022-11-29T00:54:19.505Z,8.88
2022-11-29T00:55:01.171Z,7.80
2022-11-29T00:55:45.152Z,7.85
2022-11-29T00:56:26.876Z,7.60
2022-11-29T00:57:08.507Z,7.40
2022-11-29T00:57:50.211Z,7.30
2022-11-29T00:58:32.629Z,7.60
2022-11-29T00:59:14.271Z,7.68
2022-11-29T00:59:55.927Z,7.63
2022-11-29T01:00:37.629Z,8.30
2022-11-29T01:01:19.533Z,8.57
2022-11-29T01:02:01.397Z,8.32
2022-11-29T01:02:43.097Z,8.05
2022-11-29T01:03:25.216Z,7.65
2022-11-29T01:04:07.591Z,8.93
2022-11-29T01:04:49.232Z,8.73
2022-11-29T01:05:31.854Z,8.60
2022-11-29T01:06:16.829Z,8.00
2022-11-29T01:06:58.489Z,8.15
2022-11-29T01:07:40.234Z,8.20
2022-11-29T01:08:21.989Z,8.80
2022-11-29T01:09:04.597Z,8.73
2022-11-29T01:09:46.308Z,8.82
2022-11-29T01:10:27.994Z,8.35
2022-11-29T01:11:23.836Z,8.50
2022-11-29T01:12:05.694Z,8.82
2022-11-29T01:12:47.377Z,9.20
2022-11-29T01:13:29.105Z,8.65
2022-11-29T01:14:12.121Z,7.97
2022-11-29T01:14:53.789Z,7.60
2022-11-29T01:15:36.423Z,8.70
2022-11-29T01:16:18.372Z,9.48
2022-11-29T01:17:00.186Z,9.25
2022-11-29T01:17:42.251Z,8.75
2022-11-29T01:18:24.550Z,8.80
2022-11-29T01:19:07.272Z,8.80
2022-11-29T01:19:51.014Z,9.00
2022-11-29T01:20:33.288Z,8.80
2022-11-29T01:21:17.976Z,9.48
2022-11-29T01:21:59.622Z,8.93
2022-11-29T01:22:41.613Z,9.15
2022-11-29T01:23:23.323Z,9.68
2022-11-29T01:24:05.275Z,9.73
2022-11-29T01:24:47.037Z,9.77
2022-11-29T01:25:29.309Z,9.07
2022-11-29T01:26:15.430Z,9.25
2022-11-29T01:26:57.097Z,9.50
2022-11-29T01:27:39.124Z,9.13
2022-11-29T01:28:21.175Z,9.63
2022-11-29T01:29:03.250Z,9.50
2022-11-29T01:29:44.951Z,9.15
2022-11-29T01:30:26.697Z,8.52
2022-11-29T01:31:20.058Z,8.80
2022-11-29T01:32:01.697Z,8.40
2022-11-29T01:32:43.363Z,8.90
2022-11-29T01:33:25.137Z,9.50
2022-11-29T01:34:07.504Z,8.70
2022-11-29T01:34:49.591Z,8.77
2022-11-29T01:35:31.294Z,8.90
2022-11-29T01:36:13.914Z,9.35
2022-11-29T01:36:55.641Z,9.43
2022-11-29T01:37:37.324Z,9.57
2022-11-29T01:38:19.725Z,9.00
2022-11-29T01:39:02.806Z,8.88
2022-11-29T01:39:44.528Z,9.80
2022-11-29T01:40:26.156Z,9.75
2022-11-29T01:41:12.951Z,9.45
2022-11-29T01:41:55.002Z,9.75
2022-11-29T01:42:36.641Z,9.27
2022-11-29T01:43:18.634Z,9.40
2022-11-29T01:44:06.961Z,8.90
2022-11-29T01:45:03.814Z,8.60
2022-11-29T01:45:45.488Z,8.90
2022-11-29T01:46:35.382Z,9.10
2022-11-29T01:47:18.568Z,9.38
2022-11-29T01:48:00.821Z,10.57
2022-11-29T01:48:42.476Z,9.90
2022-11-29T01:49:27.296Z,10.10
2022-11-29T01:50:09.859Z,9.90
2022-11-29T01:50:53.050Z,10.05
2022-11-29T01:51:37.404Z,10.00
2022-11-29T01:52:28.633Z,10.05
2022-11-29T01:53:13.268Z,10.07
2022-11-29T01:53:55.522Z,10.45
2022-11-29T01:54:44.629Z,10.32
2022-11-29T01:55:26.816Z,10.68
2022-11-29T01:56:09.962Z,9.35
2022-11-29T01:56:52.709Z,9.90
2022-11-29T01:57:36.703Z,10.02
2022-11-29T01:58:18.610Z,10.73
2022-11-29T01:59:04.394Z,9.60
2022-11-29T01:59:49.825Z,9.60
2022-11-29T02:00:32.412Z,9.50
2022-11-29T02:01:14.963Z,9.95
2022-11-29T02:02:06.528Z,11.65
2022-11-29T02:03:03.643Z,10.07
2022-11-29T02:03:45.315Z,10.20
2022-11-29T02:04:27.183Z,9.70
2022-11-29T02:05:10.103Z,10.15
2022-11-29T02:05:53.065Z,9.77
2022-11-29T02:06:35.707Z,9.57
2022-11-29T02:07:17.622Z,9.32
2022-11-29T02:08:01.212Z,11.13
2022-11-29T02:08:44.166Z,10.25
2022-11-29T02:09:25.840Z,9.57
2022-11-29T02:10:08.105Z,10.90
2022-11-29T02:11:28.893Z,10.93
2022-11-29T02:12:25.600Z,11.25
2022-11-29T02:13:22.042Z,10.20
2022-11-29T02:14:34.304Z,10.30
2022-11-29T02:15:43.712Z,9.93
2022-11-29T02:17:02.736Z,10.73
2022-11-29T02:18:05.101Z,10.82
2022-11-29T02:19:09.196Z,11.30
2022-11-29T02:20:27.758Z,9.60
2022-11-29T02:21:12.349Z,10.95
2022-11-29T02:22:16.775Z,11.70
2022-11-29T02:22:58.857Z,10.30
2022-11-29T02:23:58.289Z,10.23
2022-11-29T02:24:55.386Z,9.95
2022-11-29T02:25:45.407Z,11.43
2022-11-29T02:26:38.939Z,11.00
2022-11-29T02:27:55.987Z,10.13
2022-11-29T02:28:43.173Z,10.30
2022-11-29T02:29:40.529Z,9.80
2022-11-29T02:30:46.895Z,10.50
2022-11-29T02:31:57.900Z,10.60
2022-11-29T02:33:02.927Z,10.00
2022-11-29T02:34:11.273Z,10.38
2022-11-29T02:35:13.863Z,11.10
2022-11-29T02:36:16.460Z,10.95
2022-11-29T02:37:45.696Z,10.55
2022-11-29T02:38:46.272Z,10.90
2022-11-29T02:39:56.726Z,10.52
2022-11-29T02:41:02.967Z,10.98
2022-11-29T02:42:06.195Z,11.65
2022-11-29T02:43:41.854Z,10.10
2022-11-29T02:44:44.379Z,10.50
2022-11-29T02:45:52.619Z,11.32
2022-11-29T02:47:02.148Z,11.10
2022-11-29T02:48:09.671Z,10.18
2022-11-29T02:49:00.146Z,10.07
2022-11-29T02:50:03.081Z,10.40
2022-11-29T02:51:15.776Z,11.05
2022-11-29T02:52:02.300Z,11.23
2022-11-29T02:53:15.383Z,11.18
2022-11-29T02:54:17.006Z,10.85
2022-11-29T02:55:06.590Z,11.15
2022-11-29T02:56:07.410Z,12.27
2022-11-29T02:57:36.600Z,12.18
2022-11-29T02:58:32.265Z,12.00
2022-11-29T02:59:32.618Z,12.52
2022-11-29T03:00:18.964Z,12.73
2022-11-29T03:01:12.435Z,11.77
2022-11-29T03:02:15.795Z,12.32
2022-11-29T03:03:06.990Z,12.07
2022-11-29T03:03:53.330Z,12.05
2022-11-29T03:04:45.604Z,11.93
2022-11-29T03:05:50.598Z,11.73
2022-11-29T03:06:43.866Z,12.98
2022-11-29T03:07:49.835Z,12.70
2022-11-29T03:08:35.191Z,12.20
2022-11-29T03:09:37.529Z,14.63
2022-11-29T03:10:40.080Z,13.05
2022-11-29T03:11:40.322Z,13.10
2022-11-29T03:12:38.220Z,13.30
2022-11-29T03:13:49.670Z,13.30
2022-11-29T03:14:57.403Z,13.57
2022-11-29T03:15:51.326Z,13.13
2022-11-29T03:16:56.438Z,13.68
2022-11-29T03:17:49.351Z,13.38
2022-11-29T03:18:59.035Z,13.82
2022-11-29T03:19:59.192Z,13.70
2022-11-29T03:20:55.151Z,14.73
2022-11-29T03:21:44.026Z,14.02
2022-11-29T03:22:48.197Z,13.50
2022-11-29T03:23:50.901Z,13.73
2022-11-29T03:24:37.672Z,14.07
2022-11-29T03:25:43.713Z,14.75
2022-11-29T03:26:51.675Z,14.95
2022-11-29T03:27:46.557Z,15.80
2022-11-29T03:28:49.077Z,15.27
2022-11-29T03:29:40.371Z,16.17
2022-11-29T03:30:22.335Z,15.30
2022-11-29T03:31:18.955Z,16.33
2022-11-29T03:32:05.474Z,16.30
2022-11-29T03:33:04.433Z,16.13
2022-11-29T03:33:54.796Z,15.93
2022-11-29T03:34:56.912Z,15.77
2022-11-29T03:35:57.388Z,14.95
2022-11-29T03:36:45.295Z,14.98
2022-11-29T03:38:01.176Z,14.43
2022-11-29T03:38:46.399Z,14.70
2022-11-29T03:39:38.966Z,14.75
2022-11-29T03:40:26.284Z,16.15
2022-11-29T03:41:32.961Z,16.52
2022-11-29T03:42:21.830Z,17.33
2022-11-29T03:43:11.501Z,16.73
2022-11-29T03:44:19.959Z,16.63
2022-11-29T03:45:25.417Z,16.40
2022-11-29T03:46:18.108Z,17.33
2022-11-29T03:47:10.317Z,16.58
2022-11-29T03:48:03.783Z,16.98
2022-11-29T03:48:51.739Z,15.73
2022-11-29T03:49:36.280Z,18.13
2022-11-29T03:50:52.322Z,17.85
2022-11-29T03:51:50.828Z,17.08
2022-11-29T03:53:11.120Z,16.00
2022-11-29T03:54:03.747Z,16.83
2022-11-29T03:55:26.992Z,19.42
2022-11-29T03:56:29.177Z,18.08
2022-11-29T03:57:14.084Z,18.20
2022-11-29T03:57:58.962Z,18.33
2022-11-29T03:59:17.632Z,19.33
2022-11-29T04:00:09.866Z,18.73
2022-11-29T04:01:30.431Z,19.15
2022-11-29T04:02:24.838Z,19.85
2022-11-29T04:03:40.733Z,18.90
2022-11-29T04:04:41.117Z,19.10
2022-11-29T04:05:35.998Z,17.83
2022-11-29T04:06:54.404Z,18.45
2022-11-29T04:08:16.071Z,19.48
2022-11-29T04:09:03.817Z,20.33
2022-11-29T04:10:03.904Z,19.38
2022-11-29T04:11:25.437Z,20.15
2022-11-29T04:12:15.428Z,20.98
2022-11-29T04:13:31.920Z,21.35
2022-11-29T04:14:25.872Z,20.67
2022-11-29T04:15:15.833Z,20.05
2022-11-29T04:16:27.353Z,19.67
2022-11-29T04:17:28.096Z,20.15
2022-11-29T04:18:24.836Z,22.98
2022-11-29T04:19:14.036Z,23.65
2022-11-29T04:20:04.887Z,22.40
2022-11-29T04:21:33.199Z,20.55
2022-11-29T04:22:43.454Z,21.30
2022-11-29T04:24:01.995Z,20.92
2022-11-29T04:24:52.280Z,20.98
2022-11-29T04:25:48.656Z,20.88
2022-11-29T04:26:45.419Z,21.85
2022-11-29T04:27:36.048Z,25.20
2022-11-29T04:28:20.948Z,26.13
2022-11-29T04:29:41.120Z,26.80
2022-11-29T04:30:24.792Z,26.58
2022-11-29T04:31:36.912Z,25.65
2022-11-29T04:32:44.916Z,28.20
2022-11-29T04:33:46.304Z,28.50
2022-11-29T04:34:54.723Z,27.17
2022-11-29T04:36:33.837Z,28.23
2022-11-29T04:37:23.551Z,29.45
2022-11-29T04:38:13.676Z,27.88
2022-11-29T04:39:13.969Z,28.35
2022-11-29T04:39:55.571Z,27.95
2022-11-29T04:40:58.364Z,28.85
2022-11-29T04:41:49.504Z,29.25
2022-11-29T04:42:41.628Z,29.98
2022-11-29T04:43:26.116Z,29.02
2022-11-29T04:44:16.124Z,28.55
2022-11-29T04:45:10.886Z,25.98
2022-11-29T04:46:09.045Z,28.90
2022-11-29T04:47:02.365Z,29.17
2022-11-29T04:47:49.742Z,27.45
2022-11-29T04:48:55.232Z,30.27
2022-11-29T04:49:49.073Z,29.52
2022-11-29T04:51:06.117Z,29.17
2022-11-29T04:52:23.941Z,29.15
2022-11-29T04:53:08.414Z,29.80
2022-11-29T04:53:56.499Z,27.60
2022-11-29T04:54:59.278Z,29.33
2022-11-29T04:55:59.383Z,28.85
2022-11-29T04:56:47.158Z,28.10
2022-11-29T04:57:51.800Z,27.40
2022-11-29T04:58:37.835Z,26.98
2022-11-29T05:00:08.122Z,28.05
2022-11-29T05:01:23.958Z,30.00
2022-11-29T05:02:18.852Z,29.42
2022-11-29T05:03:09.931Z,30.80
2022-11-29T05:04:31.725Z,31.75
2022-11-29T05:05:19.144Z,30.02
2022-11-29T05:06:17.615Z,30.85
2022-11-29T05:07:14.830Z,30.33
2022-11-29T05:08:01.685Z,28.98
2022-11-29T05:09:21.944Z,29.48
2022-11-29T05:10:36.417Z,30.45
2022-11-29T05:11:50.173Z,30.50
2022-11-29T05:12:42.804Z,29.95
2022-11-29T05:13:45.136Z,27.95
2022-11-29T05:14:57.476Z,28.08
2022-11-29T05:15:52.402Z,28.48
2022-11-29T05:16:48.483Z,27.98
2022-11-29T05:17:42.325Z,27.65
2022-11-29T05:18:43.352Z,29.63
2022-11-29T05:20:05.120Z,29.67
2022-11-29T05:20:57.336Z,30.00
2022-11-29T05:22:18.990Z,29.15
2022-11-29T05:23:19.048Z,28.30
2022-11-29T05:24:37.893Z,28.73
2022-11-29T05:25:52.528Z,29.60
2022-11-29T05:26:43.678Z,30.67
2022-11-29T05:27:45.552Z,27.55
2022-11-29T05:28:47.336Z,28.10
2022-11-29T05:29:34.042Z,30.75
2022-11-29T05:30:22.131Z,30.50
2022-11-29T05:31:30.625Z,29.52
2022-11-29T05:32:45.473Z,30.38
2022-11-29T05:33:36.831Z,29.55
2022-11-29T05:34:45.604Z,30.77
2022-11-29T05:36:00.046Z,30.88
2022-11-29T05:36:59.929Z,29.23
2022-11-29T05:37:50.814Z,28.85
2022-11-29T05:38:53.775Z,29.88
2022-11-29T05:40:08.673Z,30.80
2022-11-29T05:41:10.567Z,30.40
2022-11-29T05:41:57.466Z,31.80
2022-11-29T05:42:44.942Z,28.50
2022-11-29T05:43:29.962Z,29.75
2022-11-29T05:44:11.599Z,30.50
2022-11-29T05:45:23.804Z,30.58
2022-11-29T05:46:21.491Z,31.08
2022-11-29T05:47:06.154Z,31.58
2022-11-29T05:47:55.077Z,32.67
2022-11-29T05:48:45.631Z,33.35
2022-11-29T05:49:49.520Z,33.10
2022-11-29T05:50:36.287Z,32.72
2022-11-29T05:51:38.657Z,32.38
2022-11-29T05:52:47.228Z,33.45
2022-11-29T05:53:37.243Z,33.80
2022-11-29T05:54:30.927Z,32.72
2022-11-29T05:55:15.265Z,33.58
2022-11-29T05:56:12.684Z,33.78
2022-11-29T05:57:02.800Z,33.47
2022-11-29T05:57:53.247Z,35.38
2022-11-29T05:59:09.258Z,33.70
2022-11-29T05:59:51.706Z,34.85
2022-11-29T06:01:01.710Z,34.38
2022-11-29T06:02:17.398Z,35.97
2022-11-29T06:03:09.660Z,36.67
2022-11-29T06:04:04.136Z,35.45
2022-11-29T06:04:48.817Z,35.50
2022-11-29T06:05:36.330Z,34.63
2022-11-29T06:07:02.548Z,36.70
2022-11-29T06:07:58.285Z,37.38
2022-11-29T06:08:45.705Z,36.17
2022-11-29T06:09:33.564Z,37.88
2022-11-29T06:10:19.728Z,38.17
2022-11-29T06:11:29.988Z,39.00
2022-11-29T06:12:21.182Z,38.25
2022-11-29T06:13:23.303Z,38.60
2022-11-29T06:14:20.153Z,38.65
2022-11-29T06:15:43.252Z,39.60
2022-11-29T06:16:42.275Z,41.00
2022-11-29T06:17:41.540Z,39.88
2022-11-29T06:18:48.780Z,37.92
2022-11-29T06:19:45.084Z,39.38
2022-11-29T06:21:00.062Z,39.63
2022-11-29T06:22:05.772Z,40.60
2022-11-29T06:22:55.896Z,40.05
2022-11-29T06:23:59.084Z,39.15
2022-11-29T06:24:53.410Z,40.47
2022-11-29T06:25:48.387Z,41.28
2022-11-29T06:27:17.908Z,40.78
2022-11-29T06:28:20.220Z,42.78
2022-11-29T06:29:19.156Z,39.50
2022-11-29T06:30:37.444Z,39.25
2022-11-29T06:31:48.154Z,41.72
2022-11-29T06:32:37.371Z,41.97
2022-11-29T06:33:33.802Z,39.67
2022-11-29T06:34:29.143Z,43.17
2022-11-29T06:35:30.184Z,40.88
2022-11-29T06:36:15.965Z,42.10
2022-11-29T06:37:24.175Z,42.00
2022-11-29T06:38:26.287Z,41.25
2022-11-29T06:39:09.826Z,43.05
2022-11-29T06:39:51.725Z,42.47
2022-11-29T06:40:34.019Z,39.75
2022-11-29T06:41:23.855Z,37.38
2022-11-29T06:42:05.529Z,40.95
2022-11-29T06:42:48.871Z,41.97
2022-11-29T06:43:31.301Z,40.90
2022-11-29T06:44:15.886Z,41.20
2022-11-29T06:44:58.140Z,40.33
2022-11-29T06:45:45.963Z,40.30
2022-11-29T06:46:30.573Z,37.67
2022-11-29T06:47:53.079Z,40.75
2022-11-29T06:48:45.842Z,39.60
2022-11-29T06:49:57.971Z,40.60
2022-11-29T06:50:45.190Z,41.30
2022-11-29T06:51:59.903Z,42.58
2022-11-29T06:53:11.049Z,42.42
2022-11-29T06:54:16.481Z,42.00
2022-11-29T06:55:12.975Z,40.47
2022-11-29T06:56:24.263Z,37.80
2022-11-29T06:57:16.901Z,39.22
2022-11-29T06:58:22.319Z,41.60
2022-11-29T06:59:22.721Z,42.83
2022-11-29T07:00:19.464Z,39.20
2022-11-29T07:01:16.564Z,41.75
2022-11-29T07:02:12.721Z,43.03
2022-11-29T07:03:11.204Z,40.65
2022-11-29T07:04:18.644Z,40.72
2022-11-29T07:05:21.770Z,40.10
2022-11-29T07:06:20.753Z,40.63
2022-11-29T07:07:02.609Z,39.80
2022-11-29T07:07:44.858Z,40.40
2022-11-29T07:08:26.900Z,41.28
2022-11-29T07:09:18.571Z,41.83
2022-11-29T07:10:09.343Z,43.10
2022-11-29T07:10:55.574Z,40.92
2022-11-29T07:11:37.764Z,42.85
2022-11-29T07:12:23.598Z,44.30
2022-11-29T07:13:05.542Z,40.55
2022-11-29T07:13:47.579Z,40.95
2022-11-29T07:14:29.510Z,41.72
2022-11-29T07:15:17.149Z,41.78
2022-11-29T07:16:14.265Z,42.05
2022-11-29T07:17:05.484Z,43.28
2022-11-29T07:18:11.001Z,41.55
2022-11-29T07:19:20.362Z,41.55
2022-11-29T07:20:08.312Z,39.95
2022-11-29T07:21:05.385Z,39.15
2022-11-29T07:22:01.442Z,37.03
2022-11-29T07:23:05.601Z,39.05
2022-11-29T07:24:04.802Z,38.55
2022-11-29T07:25:01.316Z,39.03
2022-11-29T07:26:03.658Z,40.13
2022-11-29T07:27:02.436Z,41.05
2022-11-29T07:27:59.942Z,38.97
2022-11-29T07:28:50.278Z,41.17
2022-11-29T07:30:10.773Z,40.13
2022-11-29T07:31:16.515Z,38.25
2022-11-29T07:32:19.257Z,39.88
2022-11-29T07:33:21.213Z,36.25
2022-11-29T07:34:28.275Z,38.85
2022-11-29T07:35:15.959Z,40.30
2022-11-29T07:36:42.523Z,40.50
2022-11-29T07:37:54.372Z,38.42
2022-11-29T07:39:02.378Z,38.20
2022-11-29T07:40:04.074Z,35.75
2022-11-29T07:40:48.774Z,35.78
2022-11-29T07:41:58.002Z,36.10
2022-11-29T07:42:42.437Z,37.92
2022-11-29T07:43:50.112Z,36.67
2022-11-29T07:44:58.052Z,40.03
2022-11-29T07:45:39.928Z,39.22
2022-11-29T07:46:21.618Z,38.17
2022-11-29T07:47:03.404Z,38.33
2022-11-29T07:47:47.678Z,40.67
2022-11-29T07:48:29.794Z,39.97
2022-11-29T07:49:14.340Z,39.63
2022-11-29T07:49:56.044Z,39.90
2022-11-29T07:50:38.125Z,39.63
2022-11-29T07:51:19.851Z,39.80
2022-11-29T07:52:04.328Z,39.55
2022-11-29T07:52:46.849Z,39.08
2022-11-29T07:53:31.171Z,39.42
2022-11-29T07:54:17.702Z,39.95
2022-11-29T07:54:59.361Z,39.35
2022-11-29T07:55:41.056Z,37.67
2022-11-29T07:56:22.697Z,39.38
2022-11-29T07:57:04.504Z,39.15
2022-11-29T07:57:46.915Z,38.63
2022-11-29T07:58:29.254Z,39.45
2022-11-29T07:59:12.421Z,40.35
2022-11-29T07:59:54.061Z,41.00
2022-11-29T08:00:35.754Z,38.78
2022-11-29T08:01:17.448Z,39.90
2022-11-29T08:01:59.245Z,39.55
2022-11-29T08:02:41.540Z,39.10
2022-11-29T08:03:23.633Z,38.25
2022-11-29T08:04:06.138Z,38.80
2022-11-29T08:04:48.025Z,37.75
2022-11-29T08:05:29.891Z,37.63
2022-11-29T08:06:11.744Z,38.22
2022-11-29T08:06:53.512Z,35.20
2022-11-29T08:07:38.675Z,35.42
2022-11-29T08:08:20.489Z,34.40
2022-11-29T08:09:03.103Z,35.97
2022-11-29T08:09:44.970Z,35.85
2022-11-29T08:10:27.624Z,35.58
2022-11-29T08:11:14.176Z,36.95
2022-11-29T08:11:55.875Z,37.33
2022-11-29T08:12:46.153Z,36.65
2022-11-29T08:13:27.815Z,33.78
2022-11-29T08:14:09.531Z,34.67
2022-11-29T08:14:51.644Z,33.78
2022-11-29T08:15:33.387Z,36.25
2022-11-29T08:16:21.164Z,37.22
2022-11-29T08:17:02.815Z,34.30
2022-11-29T08:17:44.556Z,35.72
2022-11-29T08:18:26.558Z,35.70
2022-11-29T08:19:09.474Z,37.47
2022-11-29T08:19:53.377Z,36.33
2022-11-29T08:20:38.679Z,33.75
2022-11-29T08:21:22.930Z,36.17
2022-11-29T08:22:07.147Z,37.20
2022-11-29T08:22:59.462Z,36.40
2022-11-29T08:23:41.186Z,36.17
2022-11-29T08:24:23.000Z,35.65
2022-11-29T08:25:09.775Z,36.00
2022-11-29T08:26:01.308Z,34.92
2022-11-29T08:26:43.021Z,38.00
2022-11-29T08:27:24.715Z,36.17
2022-11-29T08:28:06.832Z,37.75
2022-11-29T08:28:52.271Z,37.08
2022-11-29T08:29:33.979Z,38.50
2022-11-29T08:30:18.681Z,37.53
2022-11-29T08:31:02.603Z,37.00
2022-11-29T08:31:45.246Z,36.80
2022-11-29T08:32:27.574Z,34.90
2022-11-29T08:33:09.274Z,35.53
2022-11-29T08:33:50.952Z,36.03
2022-11-29T08:34:32.604Z,36.75
2022-11-29T08:35:14.409Z,34.60
2022-11-29T08:35:56.427Z,36.70
2022-11-29T08:36:38.352Z,36.38
2022-11-29T08:37:20.008Z,34.15
2022-11-29T08:38:01.797Z,35.22
2022-11-29T08:38:44.117Z,36.58
2022-11-29T08:39:25.751Z,35.90
2022-11-29T08:40:08.122Z,36.40
2022-11-29T08:40:49.848Z,37.35
2022-11-29T08:41:31.565Z,38.47
2022-11-29T08:42:16.004Z,37.03
2022-11-29T08:42:58.564Z,36.22
2022-11-29T08:43:42.583Z,35.88
2022-11-29T08:44:24.234Z,34.65
2022-11-29T08:45:06.953Z,34.10
2022-11-29T08:45:52.593Z,35.03
2022-11-29T08:46:52.852Z,36.45
2022-11-29T08:47:37.667Z,31.98
2022-11-29T08:53:05.157Z,34.80
2022-11-29T08:53:51.543Z,33.85
2022-11-29T08:54:33.190Z,32.20
2022-11-29T08:55:15.578Z,33.80
2022-11-29T08:56:00.035Z,34.03
2022-11-29T08:57:43.405Z,34.80
2022-11-29T08:58:25.671Z,34.67
2022-11-29T08:59:07.425Z,34.70
2022-11-29T08:59:49.078Z,34.53
2022-11-29T09:00:31.986Z,34.45
2022-11-29T09:01:18.727Z,35.17
2022-11-29T09:02:00.504Z,31.70
2022-11-29T09:02:42.358Z,33.30
2022-11-29T09:03:42.786Z,34.13
2022-11-29T09:04:30.316Z,34.10
2022-11-29T09:05:12.512Z,34.13
2022-11-29T09:05:54.299Z,32.65
2022-11-29T09:06:42.812Z,34.55
2022-11-29T09:07:24.498Z,33.33
2022-11-29T09:08:06.191Z,33.63
2022-11-29T09:08:47.856Z,34.60
2022-11-29T09:09:29.498Z,35.92
2022-11-29T09:10:13.980Z,35.33
2022-11-29T09:10:55.653Z,35.80
2022-11-29T09:11:37.416Z,33.45
2022-11-29T09:12:19.532Z,34.47
2022-11-29T09:13:01.163Z,34.25
2022-11-29T09:13:46.815Z,32.63
2022-11-29T09:14:28.809Z,33.72
2022-11-29T09:15:11.219Z,35.00
2022-11-29T09:15:55.670Z,38.03
2022-11-29T09:16:38.280Z,34.80
2022-11-29T09:17:19.956Z,34.53
2022-11-29T09:18:01.615Z,34.67
2022-11-29T09:18:48.518Z,33.63
2022-11-29T09:19:33.212Z,32.05
2022-11-29T09:20:14.957Z,32.60
2022-11-29T09:20:56.635Z,31.40
2022-11-29T09:21:38.296Z,32.85
2022-11-29T09:22:22.602Z,34.10
2022-11-29T09:23:04.287Z,33.58
2022-11-29T09:23:47.000Z,34.50
2022-11-29T09:24:28.636Z,34.28
2022-11-29T09:25:10.286Z,33.75
2022-11-29T09:25:53.449Z,33.50
2022-11-29T09:26:37.874Z,34.03
2022-11-29T09:27:19.585Z,31.00
2022-11-29T09:28:02.970Z,32.92
2022-11-29T09:28:45.427Z,32.50
2022-11-29T09:29:27.171Z,31.77
2022-11-29T09:34:28.468Z,33.35
2022-11-29T09:35:10.169Z,32.83
2022-11-29T09:35:52.057Z,33.22
2022-11-29T09:36:33.848Z,32.92
2022-11-29T09:37:15.624Z,32.20
2022-11-29T09:37:57.320Z,34.00
2022-11-29T09:38:39.233Z,32.10
2022-11-29T09:39:21.255Z,32.70
2022-11-29T09:40:04.892Z,32.92
2022-11-29T09:40:53.889Z,32.55
2022-11-29T09:41:56.267Z,32.53
2022-11-29T09:43:06.694Z,32.58
2022-11-29T09:44:25.638Z,33.80
2022-11-29T09:45:11.627Z,33.25
2022-11-29T09:46:22.601Z,33.58
2022-11-29T09:47:24.563Z,32.20
2022-11-29T09:48:33.736Z,32.75
2022-11-29T09:49:24.003Z,31.45
2022-11-29T09:50:11.890Z,32.22
2022-11-29T09:51:14.457Z,33.05
2022-11-29T09:52:07.683Z,31.38
2022-11-29T09:53:21.757Z,31.02
2022-11-29T09:54:37.004Z,31.30
2022-11-29T09:55:49.243Z,34.65
2022-11-29T09:56:40.671Z,32.78
2022-11-29T09:57:24.931Z,34.55
2022-11-29T09:58:15.032Z,34.22
2022-11-29T09:59:17.479Z,35.35
2022-11-29T10:00:04.503Z,34.13
2022-11-29T10:00:50.062Z,32.78
2022-11-29T10:01:40.168Z,35.80
2022-11-29T10:02:43.811Z,32.30
2022-11-29T10:03:42.113Z,31.30
2022-11-29T10:04:29.558Z,33.45
2022-11-29T10:05:26.020Z,34.38
2022-11-29T10:06:16.131Z,32.45
2022-11-29T10:07:07.316Z,34.03
2022-11-29T10:08:11.805Z,34.67
2022-11-29T10:08:56.621Z,33.42
2022-11-29T10:10:03.616Z,34.40
2022-11-29T10:10:48.351Z,35.55
2022-11-29T10:11:53.390Z,33.33
2022-11-29T10:12:52.388Z,32.65
2022-11-29T10:13:36.265Z,33.33
2022-11-29T10:14:22.744Z,34.40
2022-11-29T10:15:18.814Z,34.55
2022-11-29T10:16:24.615Z,32.30
2022-11-29T10:17:32.611Z,32.53
2022-11-29T10:18:22.353Z,32.20
2022-11-29T10:19:15.120Z,33.10
2022-11-29T10:20:07.091Z,31.20
2022-11-29T10:20:51.456Z,32.88
2022-11-29T10:21:38.305Z,32.17
2022-11-29T10:22:41.473Z,32.28
2022-11-29T10:23:41.726Z,33.15
2022-11-29T10:24:25.625Z,32.28
2022-11-29T10:25:17.862Z,33.38
2022-11-29T10:25:59.746Z,31.67
2022-11-29T10:26:43.435Z,31.40
2022-11-29T10:27:29.435Z,31.35
2022-11-29T10:28:15.686Z,33.20
2022-11-29T10:28:57.983Z,32.30
2022-11-29T10:29:39.714Z,31.33
2022-11-29T10:30:21.952Z,29.92
2022-11-29T10:31:22.163Z,29.73
2022-11-29T10:32:13.822Z,28.58
2022-11-29T10:32:58.752Z,26.92
2022-11-29T10:33:41.322Z,25.98
2022-11-29T10:34:25.381Z,26.90
2022-11-29T10:35:14.722Z,23.42
2022-11-29T10:36:00.251Z,21.48
2022-11-29T10:36:48.344Z,22.60
2022-11-29T10:37:32.715Z,23.02
2022-11-29T10:38:30.289Z,23.48
2022-11-29T10:39:53.055Z,25.23
2022-11-29T10:40:37.874Z,24.52
2022-11-29T10:41:25.454Z,22.45
2022-11-29T10:42:34.944Z,20.65
2022-11-29T10:43:19.544Z,22.00
2022-11-29T10:44:01.907Z,22.08
2022-11-29T10:44:44.122Z,22.85
2022-11-29T10:45:34.968Z,22.83
2022-11-29T10:46:26.832Z,22.48
2022-11-29T10:47:11.198Z,22.20
2022-11-29T10:48:01.826Z,22.10
2022-11-29T10:48:43.735Z,20.50
2022-11-29T10:49:28.892Z,20.83
2022-11-29T10:50:21.333Z,21.02
2022-11-29T10:51:03.257Z,21.92
2022-11-29T10:51:46.394Z,22.15
2022-11-29T10:52:30.834Z,22.48
2022-11-29T10:53:19.794Z,22.98
2022-11-29T10:54:26.642Z,22.25
2022-11-29T10:55:14.640Z,22.40
2022-11-29T10:56:13.724Z,22.30
2022-11-29T10:56:59.091Z,21.75
2022-11-29T10:58:12.869Z,23.07
2022-11-29T10:58:56.889Z,23.08
2022-11-29T10:59:38.611Z,22.27
2022-11-29T11:00:20.444Z,20.83
2022-11-29T11:01:07.654Z,21.80
2022-11-29T11:01:50.580Z,21.55
2022-11-29T11:02:32.753Z,23.33
2022-11-29T11:03:25.347Z,23.45
2022-11-29T11:04:12.019Z,25.55
2022-11-29T11:04:55.064Z,25.17
2022-11-29T11:05:38.370Z,23.33
2022-11-29T11:06:44.160Z,23.60
2022-11-29T11:07:35.047Z,23.67
2022-11-29T11:08:18.242Z,22.17
2022-11-29T11:09:26.968Z,23.10
2022-11-29T11:10:29.551Z,24.58
2022-11-29T11:11:12.359Z,23.40
2022-11-29T11:11:57.733Z,24.45
2022-11-29T11:12:39.766Z,24.10
2022-11-29T11:13:25.324Z,23.45
2022-11-29T11:14:26.747Z,21.23
2022-11-29T11:15:34.703Z,23.48
2022-11-29T11:16:24.144Z,20.90
2022-11-29T11:17:26.382Z,21.65
2022-11-29T11:18:20.783Z,21.25
2022-11-29T11:19:32.186Z,21.52
2022-11-29T11:20:22.740Z,22.02